sensor_id;sensor_type;location;lat;lon;timestamp;P1;durP1;ratioP1;P2;durP2;ratioP2
22439;SDS011;11387;51.612;7.210;2023-07-16T00:01:55;5.38;;;2.22;;
22439;SDS011;11387;51.612;7.210;2023-07-16T00:04:24;3.17;;;1.58;;
22439;SDS011;11387;51.612;7.210;2023-07-16T00:06:53;4.65;;;2.10;;
22439;SDS011;11387;51.612;7.210;2023-07-16T00:09:22;5.93;;;1.70;;
22439;SDS011;11387;51.612;7.210;2023-07-16T00:11:53;10.73;;;1.80;;
22439;SDS011;11387;51.612;7.210;2023-07-16T00:14:22;4.63;;;2.10;;
22439;SDS011;11387;51.612;7.210;2023-07-16T00:16:51;12.30;;;1.77;;
22439;SDS011;11387;51.612;7.210;2023-07-16T00:19:20;4.47;;;1.90;;
22439;SDS011;11387;51.612;7.210;2023-07-16T00:21:49;6.45;;;2.03;;
22439;SDS011;11387;51.612;7.210;2023-07-16T00:24:18;6.35;;;2.13;;
22439;SDS011;11387;51.612;7.210;2023-07-16T00:26:47;5.50;;;2.25;;
22439;SDS011;11387;51.612;7.210;2023-07-16T00:29:24;4.97;;;1.95;;
22439;SDS011;11387;51.612;7.210;2023-07-16T00:31:53;7.10;;;2.28;;
22439;SDS011;11387;51.612;7.210;2023-07-16T00:34:22;7.55;;;1.90;;
22439;SDS011;11387;51.612;7.210;2023-07-16T00:36:51;12.05;;;2.97;;
22439;SDS011;11387;51.612;7.210;2023-07-16T00:39:23;6.20;;;2.08;;
22439;SDS011;11387;51.612;7.210;2023-07-16T00:41:53;5.78;;;2.17;;
22439;SDS011;11387;51.612;7.210;2023-07-16T00:44:22;6.43;;;2.22;;
22439;SDS011;11387;51.612;7.210;2023-07-16T00:46:52;10.98;;;2.72;;
22439;SDS011;11387;51.612;7.210;2023-07-16T00:49:22;5.70;;;2.42;;
22439;SDS011;11387;51.612;7.210;2023-07-16T00:51:52;5.15;;;1.98;;
22439;SDS011;11387;51.612;7.210;2023-07-16T00:54:24;7.25;;;2.25;;
22439;SDS011;11387;51.612;7.210;2023-07-16T00:56:54;5.13;;;2.22;;
22439;SDS011;11387;51.612;7.210;2023-07-16T00:59:23;7.63;;;1.83;;
22439;SDS011;11387;51.612;7.210;2023-07-16T01:01:54;8.43;;;2.47;;
22439;SDS011;11387;51.612;7.210;2023-07-16T01:04:23;5.43;;;2.20;;
22439;SDS011;11387;51.612;7.210;2023-07-16T01:06:53;7.22;;;2.22;;
22439;SDS011;11387;51.612;7.210;2023-07-16T01:09:24;5.78;;;2.58;;
22439;SDS011;11387;51.612;7.210;2023-07-16T01:11:54;5.72;;;2.42;;
22439;SDS011;11387;51.612;7.210;2023-07-16T01:14:24;6.95;;;2.83;;
22439;SDS011;11387;51.612;7.210;2023-07-16T01:16:55;10.68;;;2.88;;
22439;SDS011;11387;51.612;7.210;2023-07-16T01:19:28;7.38;;;2.38;;
22439;SDS011;11387;51.612;7.210;2023-07-16T01:22:01;6.38;;;2.53;;
22439;SDS011;11387;51.612;7.210;2023-07-16T01:24:53;9.05;;;3.25;;
22439;SDS011;11387;51.612;7.210;2023-07-16T01:27:43;7.05;;;2.78;;
22439;SDS011;11387;51.612;7.210;2023-07-16T01:30:28;5.20;;;2.40;;
22439;SDS011;11387;51.612;7.210;2023-07-16T01:32:59;5.13;;;2.67;;
22439;SDS011;11387;51.612;7.210;2023-07-16T01:35:33;7.53;;;3.03;;
22439;SDS011;11387;51.612;7.210;2023-07-16T01:38:03;5.68;;;2.58;;
22439;SDS011;11387;51.612;7.210;2023-07-16T01:40:32;3.80;;;2.45;;
22439;SDS011;11387;51.612;7.210;2023-07-16T01:43:01;5.18;;;2.60;;
22439;SDS011;11387;51.612;7.210;2023-07-16T01:45:31;9.07;;;3.20;;
22439;SDS011;11387;51.612;7.210;2023-07-16T01:48:04;8.95;;;3.70;;
22439;SDS011;11387;51.612;7.210;2023-07-16T01:50:41;6.28;;;3.30;;
22439;SDS011;11387;51.612;7.210;2023-07-16T01:53:11;7.93;;;3.78;;
22439;SDS011;11387;51.612;7.210;2023-07-16T01:55:40;6.88;;;3.85;;
22439;SDS011;11387;51.612;7.210;2023-07-16T01:58:09;8.82;;;3.70;;
22439;SDS011;11387;51.612;7.210;2023-07-16T02:00:39;8.30;;;3.83;;
22439;SDS011;11387;51.612;7.210;2023-07-16T02:03:09;7.82;;;3.78;;
22439;SDS011;11387;51.612;7.210;2023-07-16T02:05:38;8.48;;;3.25;;
22439;SDS011;11387;51.612;7.210;2023-07-16T02:08:10;6.13;;;3.22;;
22439;SDS011;11387;51.612;7.210;2023-07-16T02:10:39;7.57;;;3.20;;
22439;SDS011;11387;51.612;7.210;2023-07-16T02:13:08;8.23;;;3.35;;
22439;SDS011;11387;51.612;7.210;2023-07-16T02:15:36;5.35;;;3.15;;
22439;SDS011;11387;51.612;7.210;2023-07-16T02:18:06;6.05;;;2.80;;
22439;SDS011;11387;51.612;7.210;2023-07-16T02:20:35;8.05;;;2.50;;
22439;SDS011;11387;51.612;7.210;2023-07-16T02:23:03;5.95;;;2.40;;
22439;SDS011;11387;51.612;7.210;2023-07-16T02:25:32;5.82;;;2.65;;
22439;SDS011;11387;51.612;7.210;2023-07-16T02:28:01;4.82;;;2.38;;
22439;SDS011;11387;51.612;7.210;2023-07-16T02:30:29;8.05;;;2.45;;
22439;SDS011;11387;51.612;7.210;2023-07-16T02:32:58;6.53;;;2.78;;
22439;SDS011;11387;51.612;7.210;2023-07-16T02:35:28;4.80;;;1.90;;
22439;SDS011;11387;51.612;7.210;2023-07-16T02:37:57;6.47;;;2.55;;
22439;SDS011;11387;51.612;7.210;2023-07-16T02:40:25;8.65;;;2.47;;
22439;SDS011;11387;51.612;7.210;2023-07-16T02:42:54;4.57;;;1.85;;
22439;SDS011;11387;51.612;7.210;2023-07-16T02:45:22;6.65;;;2.28;;
22439;SDS011;11387;51.612;7.210;2023-07-16T02:47:51;8.85;;;2.40;;
22439;SDS011;11387;51.612;7.210;2023-07-16T02:50:19;9.88;;;2.33;;
22439;SDS011;11387;51.612;7.210;2023-07-16T02:52:49;5.05;;;1.92;;
22439;SDS011;11387;51.612;7.210;2023-07-16T02:55:34;4.25;;;1.95;;
22439;SDS011;11387;51.612;7.210;2023-07-16T02:58:03;7.07;;;2.00;;
22439;SDS011;11387;51.612;7.210;2023-07-16T03:00:32;10.52;;;2.42;;
22439;SDS011;11387;51.612;7.210;2023-07-16T03:03:01;9.60;;;2.22;;
22439;SDS011;11387;51.612;7.210;2023-07-16T03:05:30;5.35;;;2.25;;
22439;SDS011;11387;51.612;7.210;2023-07-16T03:08:00;6.13;;;2.08;;
22439;SDS011;11387;51.612;7.210;2023-07-16T03:10:28;6.35;;;2.17;;
22439;SDS011;11387;51.612;7.210;2023-07-16T03:12:57;5.07;;;2.45;;
22439;SDS011;11387;51.612;7.210;2023-07-16T03:15:25;7.45;;;2.33;;
22439;SDS011;11387;51.612;7.210;2023-07-16T03:17:54;7.43;;;1.80;;
22439;SDS011;11387;51.612;7.210;2023-07-16T03:20:40;9.00;;;2.90;;
22439;SDS011;11387;51.612;7.210;2023-07-16T03:23:10;6.90;;;2.35;;
22439;SDS011;11387;51.612;7.210;2023-07-16T03:25:39;9.35;;;2.38;;
22439;SDS011;11387;51.612;7.210;2023-07-16T03:28:08;6.40;;;2.08;;
22439;SDS011;11387;51.612;7.210;2023-07-16T03:30:37;9.70;;;2.15;;
22439;SDS011;11387;51.612;7.210;2023-07-16T03:33:06;6.68;;;1.88;;
22439;SDS011;11387;51.612;7.210;2023-07-16T03:35:35;3.15;;;1.67;;
22439;SDS011;11387;51.612;7.210;2023-07-16T03:38:03;8.00;;;2.40;;
22439;SDS011;11387;51.612;7.210;2023-07-16T03:40:33;11.32;;;2.17;;
22439;SDS011;11387;51.612;7.210;2023-07-16T03:43:02;4.32;;;1.88;;
22439;SDS011;11387;51.612;7.210;2023-07-16T03:45:30;9.50;;;2.38;;
22439;SDS011;11387;51.612;7.210;2023-07-16T03:47:59;7.70;;;2.20;;
22439;SDS011;11387;51.612;7.210;2023-07-16T03:50:28;8.60;;;2.15;;
22439;SDS011;11387;51.612;7.210;2023-07-16T03:52:56;6.75;;;2.10;;
22439;SDS011;11387;51.612;7.210;2023-07-16T03:55:25;4.90;;;1.63;;
22439;SDS011;11387;51.612;7.210;2023-07-16T03:57:55;11.77;;;2.15;;
22439;SDS011;11387;51.612;7.210;2023-07-16T04:00:23;8.02;;;2.75;;
22439;SDS011;11387;51.612;7.210;2023-07-16T04:02:52;6.78;;;1.85;;
22439;SDS011;11387;51.612;7.210;2023-07-16T04:05:21;7.10;;;2.58;;
22439;SDS011;11387;51.612;7.210;2023-07-16T04:07:51;5.80;;;1.73;;
22439;SDS011;11387;51.612;7.210;2023-07-16T04:10:19;10.57;;;2.25;;
22439;SDS011;11387;51.612;7.210;2023-07-16T04:12:48;11.40;;;2.50;;
22439;SDS011;11387;51.612;7.210;2023-07-16T04:15:18;10.75;;;2.17;;
22439;SDS011;11387;51.612;7.210;2023-07-16T04:17:46;11.38;;;2.90;;
22439;SDS011;11387;51.612;7.210;2023-07-16T04:20:15;17.58;;;2.70;;
22439;SDS011;11387;51.612;7.210;2023-07-16T04:22:44;9.10;;;2.70;;
22439;SDS011;11387;51.612;7.210;2023-07-16T04:25:13;6.15;;;2.80;;
22439;SDS011;11387;51.612;7.210;2023-07-16T04:27:42;8.95;;;3.00;;
22439;SDS011;11387;51.612;7.210;2023-07-16T04:30:32;11.35;;;2.65;;
22439;SDS011;11387;51.612;7.210;2023-07-16T04:33:00;10.13;;;2.70;;
22439;SDS011;11387;51.612;7.210;2023-07-16T04:35:30;11.65;;;2.78;;
22439;SDS011;11387;51.612;7.210;2023-07-16T04:37:59;8.52;;;2.67;;
22439;SDS011;11387;51.612;7.210;2023-07-16T04:40:28;9.07;;;2.45;;
22439;SDS011;11387;51.612;7.210;2023-07-16T04:42:57;11.20;;;3.17;;
22439;SDS011;11387;51.612;7.210;2023-07-16T04:45:25;5.90;;;2.50;;
22439;SDS011;11387;51.612;7.210;2023-07-16T04:47:55;10.57;;;2.67;;
22439;SDS011;11387;51.612;7.210;2023-07-16T04:50:24;8.68;;;2.60;;
22439;SDS011;11387;51.612;7.210;2023-07-16T04:52:52;7.40;;;2.97;;
22439;SDS011;11387;51.612;7.210;2023-07-16T04:55:21;10.82;;;3.25;;
22439;SDS011;11387;51.612;7.210;2023-07-16T04:57:49;8.15;;;2.65;;
22439;SDS011;11387;51.612;7.210;2023-07-16T05:00:20;10.50;;;2.97;;
22439;SDS011;11387;51.612;7.210;2023-07-16T05:02:49;6.75;;;2.80;;
22439;SDS011;11387;51.612;7.210;2023-07-16T05:05:19;6.90;;;2.60;;
22439;SDS011;11387;51.612;7.210;2023-07-16T05:07:47;8.30;;;2.75;;
22439;SDS011;11387;51.612;7.210;2023-07-16T05:10:16;10.23;;;3.47;;
22439;SDS011;11387;51.612;7.210;2023-07-16T05:12:45;10.77;;;2.92;;
22439;SDS011;11387;51.612;7.210;2023-07-16T05:15:14;9.13;;;3.03;;
22439;SDS011;11387;51.612;7.210;2023-07-16T05:17:42;15.13;;;3.85;;
22439;SDS011;11387;51.612;7.210;2023-07-16T05:20:11;7.80;;;2.78;;
22439;SDS011;11387;51.612;7.210;2023-07-16T05:22:41;8.25;;;2.65;;
22439;SDS011;11387;51.612;7.210;2023-07-16T05:25:09;7.97;;;2.83;;
22439;SDS011;11387;51.612;7.210;2023-07-16T05:27:38;19.70;;;4.07;;
22439;SDS011;11387;51.612;7.210;2023-07-16T05:30:07;8.15;;;3.20;;
22439;SDS011;11387;51.612;7.210;2023-07-16T05:32:36;9.63;;;3.45;;
22439;SDS011;11387;51.612;7.210;2023-07-16T05:35:05;12.07;;;3.95;;
22439;SDS011;11387;51.612;7.210;2023-07-16T05:37:34;9.95;;;3.42;;
22439;SDS011;11387;51.612;7.210;2023-07-16T05:40:05;8.95;;;3.47;;
22439;SDS011;11387;51.612;7.210;2023-07-16T05:42:36;8.63;;;3.67;;
22439;SDS011;11387;51.612;7.210;2023-07-16T05:45:05;8.50;;;3.08;;
22439;SDS011;11387;51.612;7.210;2023-07-16T05:47:33;8.27;;;3.38;;
22439;SDS011;11387;51.612;7.210;2023-07-16T05:50:02;9.00;;;3.17;;
22439;SDS011;11387;51.612;7.210;2023-07-16T05:52:31;10.32;;;2.90;;
22439;SDS011;11387;51.612;7.210;2023-07-16T05:54:59;7.78;;;3.30;;
22439;SDS011;11387;51.612;7.210;2023-07-16T05:57:29;10.25;;;3.00;;
22439;SDS011;11387;51.612;7.210;2023-07-16T05:59:58;17.17;;;3.88;;
22439;SDS011;11387;51.612;7.210;2023-07-16T06:02:27;9.80;;;2.85;;
22439;SDS011;11387;51.612;7.210;2023-07-16T06:04:56;8.40;;;2.72;;
22439;SDS011;11387;51.612;7.210;2023-07-16T06:07:24;6.55;;;2.60;;
22439;SDS011;11387;51.612;7.210;2023-07-16T06:09:53;18.27;;;3.50;;
22439;SDS011;11387;51.612;7.210;2023-07-16T06:12:22;15.40;;;3.13;;
22439;SDS011;11387;51.612;7.210;2023-07-16T06:14:51;15.85;;;3.83;;
22439;SDS011;11387;51.612;7.210;2023-07-16T06:17:21;7.32;;;3.05;;
22439;SDS011;11387;51.612;7.210;2023-07-16T06:19:49;12.02;;;3.38;;
22439;SDS011;11387;51.612;7.210;2023-07-16T06:22:18;9.82;;;3.63;;
22439;SDS011;11387;51.612;7.210;2023-07-16T06:24:47;12.80;;;4.25;;
22439;SDS011;11387;51.612;7.210;2023-07-16T06:27:16;9.25;;;3.75;;
22439;SDS011;11387;51.612;7.210;2023-07-16T06:29:44;10.32;;;3.60;;
22439;SDS011;11387;51.612;7.210;2023-07-16T06:32:14;15.48;;;4.15;;
22439;SDS011;11387;51.612;7.210;2023-07-16T06:34:43;9.45;;;3.75;;
22439;SDS011;11387;51.612;7.210;2023-07-16T06:37:12;13.05;;;4.00;;
22439;SDS011;11387;51.612;7.210;2023-07-16T06:39:40;12.82;;;3.60;;
22439;SDS011;11387;51.612;7.210;2023-07-16T06:42:09;13.18;;;4.30;;
22439;SDS011;11387;51.612;7.210;2023-07-16T06:44:37;15.65;;;4.05;;
22439;SDS011;11387;51.612;7.210;2023-07-16T06:47:06;8.90;;;3.60;;
22439;SDS011;11387;51.612;7.210;2023-07-16T06:49:36;11.35;;;3.95;;
22439;SDS011;11387;51.612;7.210;2023-07-16T06:52:19;11.35;;;4.00;;
22439;SDS011;11387;51.612;7.210;2023-07-16T06:54:49;9.75;;;4.00;;
22439;SDS011;11387;51.612;7.210;2023-07-16T06:57:18;10.45;;;4.22;;
22439;SDS011;11387;51.612;7.210;2023-07-16T07:00:07;12.13;;;4.65;;
22439;SDS011;11387;51.612;7.210;2023-07-16T07:02:38;16.95;;;4.18;;
22439;SDS011;11387;51.612;7.210;2023-07-16T07:05:09;17.48;;;4.30;;
22439;SDS011;11387;51.612;7.210;2023-07-16T07:07:37;8.35;;;4.28;;
22439;SDS011;11387;51.612;7.210;2023-07-16T07:10:06;11.82;;;3.72;;
22439;SDS011;11387;51.612;7.210;2023-07-16T07:12:35;11.70;;;4.50;;
22439;SDS011;11387;51.612;7.210;2023-07-16T07:15:05;12.55;;;4.32;;
22439;SDS011;11387;51.612;7.210;2023-07-16T07:17:35;9.07;;;3.97;;
22439;SDS011;11387;51.612;7.210;2023-07-16T07:20:04;10.90;;;4.32;;
22439;SDS011;11387;51.612;7.210;2023-07-16T07:22:37;11.32;;;4.30;;
22439;SDS011;11387;51.612;7.210;2023-07-16T07:25:06;11.48;;;4.60;;
22439;SDS011;11387;51.612;7.210;2023-07-16T07:27:36;13.23;;;4.43;;
22439;SDS011;11387;51.612;7.210;2023-07-16T07:30:05;13.45;;;4.30;;
22439;SDS011;11387;51.612;7.210;2023-07-16T07:32:36;14.88;;;4.55;;
22439;SDS011;11387;51.612;7.210;2023-07-16T07:35:05;10.85;;;4.05;;
22439;SDS011;11387;51.612;7.210;2023-07-16T07:37:34;10.55;;;4.15;;
22439;SDS011;11387;51.612;7.210;2023-07-16T07:40:05;13.63;;;4.38;;
22439;SDS011;11387;51.612;7.210;2023-07-16T07:42:35;11.80;;;4.57;;
22439;SDS011;11387;51.612;7.210;2023-07-16T07:45:05;11.00;;;4.05;;
22439;SDS011;11387;51.612;7.210;2023-07-16T07:47:34;13.07;;;4.28;;
22439;SDS011;11387;51.612;7.210;2023-07-16T07:50:03;15.85;;;4.95;;
22439;SDS011;11387;51.612;7.210;2023-07-16T07:52:32;16.75;;;5.03;;
22439;SDS011;11387;51.612;7.210;2023-07-16T07:55:01;12.32;;;4.35;;
22439;SDS011;11387;51.612;7.210;2023-07-16T07:57:31;12.43;;;4.88;;
22439;SDS011;11387;51.612;7.210;2023-07-16T08:00:00;7.88;;;3.83;;
22439;SDS011;11387;51.612;7.210;2023-07-16T08:02:29;11.77;;;3.92;;
22439;SDS011;11387;51.612;7.210;2023-07-16T08:04:57;8.60;;;4.30;;
22439;SDS011;11387;51.612;7.210;2023-07-16T08:07:31;9.15;;;3.63;;
22439;SDS011;11387;51.612;7.210;2023-07-16T08:10:00;8.68;;;4.03;;
22439;SDS011;11387;51.612;7.210;2023-07-16T08:12:28;17.00;;;4.78;;
22439;SDS011;11387;51.612;7.210;2023-07-16T08:14:59;10.68;;;4.88;;
22439;SDS011;11387;51.612;7.210;2023-07-16T08:17:28;13.63;;;4.45;;
22439;SDS011;11387;51.612;7.210;2023-07-16T08:19:56;13.07;;;4.78;;
22439;SDS011;11387;51.612;7.210;2023-07-16T08:22:26;11.43;;;4.50;;
22439;SDS011;11387;51.612;7.210;2023-07-16T08:24:54;12.02;;;4.22;;
22439;SDS011;11387;51.612;7.210;2023-07-16T08:27:23;8.38;;;4.57;;
22439;SDS011;11387;51.612;7.210;2023-07-16T08:29:52;10.15;;;4.13;;
22439;SDS011;11387;51.612;7.210;2023-07-16T08:32:22;8.90;;;3.90;;
22439;SDS011;11387;51.612;7.210;2023-07-16T08:34:51;8.85;;;4.22;;
22439;SDS011;11387;51.612;7.210;2023-07-16T08:37:19;13.07;;;4.10;;
22439;SDS011;11387;51.612;7.210;2023-07-16T08:39:50;5.82;;;3.90;;
22439;SDS011;11387;51.612;7.210;2023-07-16T08:42:19;9.95;;;3.83;;
22439;SDS011;11387;51.612;7.210;2023-07-16T08:44:49;7.40;;;4.03;;
22439;SDS011;11387;51.612;7.210;2023-07-16T08:47:18;9.20;;;3.83;;
22439;SDS011;11387;51.612;7.210;2023-07-16T08:49:50;7.15;;;4.13;;
22439;SDS011;11387;51.612;7.210;2023-07-16T08:52:22;9.02;;;4.38;;
22439;SDS011;11387;51.612;7.210;2023-07-16T08:54:51;8.30;;;4.55;;
22439;SDS011;11387;51.612;7.210;2023-07-16T08:57:19;9.88;;;4.28;;
22439;SDS011;11387;51.612;7.210;2023-07-16T08:59:49;9.27;;;3.55;;
22439;SDS011;11387;51.612;7.210;2023-07-16T09:02:19;9.02;;;4.15;;
22439;SDS011;11387;51.612;7.210;2023-07-16T09:04:50;12.60;;;4.38;;
22439;SDS011;11387;51.612;7.210;2023-07-16T09:07:19;7.43;;;3.90;;
22439;SDS011;11387;51.612;7.210;2023-07-16T09:09:56;10.18;;;4.05;;
22439;SDS011;11387;51.612;7.210;2023-07-16T09:12:28;7.40;;;4.03;;
22439;SDS011;11387;51.612;7.210;2023-07-16T09:14:57;13.73;;;4.53;;
22439;SDS011;11387;51.612;7.210;2023-07-16T09:17:25;11.35;;;4.78;;
22439;SDS011;11387;51.612;7.210;2023-07-16T09:19:55;9.98;;;3.95;;
22439;SDS011;11387;51.612;7.210;2023-07-16T09:22:24;10.07;;;4.60;;
22439;SDS011;11387;51.612;7.210;2023-07-16T09:24:53;6.40;;;3.85;;
22439;SDS011;11387;51.612;7.210;2023-07-16T09:27:27;9.85;;;4.07;;
22439;SDS011;11387;51.612;7.210;2023-07-16T09:29:56;8.90;;;3.80;;
22439;SDS011;11387;51.612;7.210;2023-07-16T09:32:32;14.07;;;4.07;;
22439;SDS011;11387;51.612;7.210;2023-07-16T09:35:07;11.50;;;4.47;;
22439;SDS011;11387;51.612;7.210;2023-07-16T09:37:37;8.13;;;3.72;;
22439;SDS011;11387;51.612;7.210;2023-07-16T09:40:07;8.95;;;4.13;;
22439;SDS011;11387;51.612;7.210;2023-07-16T09:42:37;6.07;;;2.90;;
22439;SDS011;11387;51.612;7.210;2023-07-16T09:45:07;11.05;;;4.50;;
22439;SDS011;11387;51.612;7.210;2023-07-16T09:48:02;7.03;;;3.58;;
22439;SDS011;11387;51.612;7.210;2023-07-16T09:50:33;8.82;;;3.65;;
22439;SDS011;11387;51.612;7.210;2023-07-16T09:53:03;11.35;;;3.92;;
22439;SDS011;11387;51.612;7.210;2023-07-16T09:55:35;8.27;;;3.10;;
22439;SDS011;11387;51.612;7.210;2023-07-16T09:58:05;7.35;;;3.28;;
22439;SDS011;11387;51.612;7.210;2023-07-16T10:00:36;10.90;;;3.60;;
22439;SDS011;11387;51.612;7.210;2023-07-16T10:03:07;7.43;;;4.15;;
22439;SDS011;11387;51.612;7.210;2023-07-16T10:05:37;7.72;;;3.97;;
22439;SDS011;11387;51.612;7.210;2023-07-16T10:08:15;7.40;;;3.22;;
22439;SDS011;11387;51.612;7.210;2023-07-16T10:10:45;6.68;;;3.42;;
22439;SDS011;11387;51.612;7.210;2023-07-16T10:13:16;8.35;;;3.83;;
22439;SDS011;11387;51.612;7.210;2023-07-16T10:15:51;6.57;;;3.58;;
22439;SDS011;11387;51.612;7.210;2023-07-16T10:18:22;8.10;;;4.00;;
22439;SDS011;11387;51.612;7.210;2023-07-16T10:20:59;15.15;;;3.95;;
22439;SDS011;11387;51.612;7.210;2023-07-16T10:23:39;6.68;;;3.65;;
22439;SDS011;11387;51.612;7.210;2023-07-16T10:26:12;8.43;;;3.70;;
22439;SDS011;11387;51.612;7.210;2023-07-16T10:28:47;16.08;;;3.78;;
22439;SDS011;11387;51.612;7.210;2023-07-16T10:31:21;8.43;;;4.03;;
22439;SDS011;11387;51.612;7.210;2023-07-16T10:33:58;6.47;;;2.88;;
22439;SDS011;11387;51.612;7.210;2023-07-16T10:36:29;9.85;;;4.43;;
22439;SDS011;11387;51.612;7.210;2023-07-16T10:39:03;10.35;;;4.13;;
22439;SDS011;11387;51.612;7.210;2023-07-16T10:41:32;9.20;;;3.92;;
22439;SDS011;11387;51.612;7.210;2023-07-16T10:44:01;12.38;;;3.40;;
22439;SDS011;11387;51.612;7.210;2023-07-16T10:46:31;6.85;;;3.45;;
22439;SDS011;11387;51.612;7.210;2023-07-16T10:49:01;7.50;;;4.13;;
22439;SDS011;11387;51.612;7.210;2023-07-16T10:51:31;14.27;;;4.75;;
22439;SDS011;11387;51.612;7.210;2023-07-16T10:54:00;7.90;;;3.95;;
22439;SDS011;11387;51.612;7.210;2023-07-16T10:56:33;7.30;;;3.40;;
22439;SDS011;11387;51.612;7.210;2023-07-16T10:59:03;7.13;;;3.75;;
22439;SDS011;11387;51.612;7.210;2023-07-16T11:01:32;7.60;;;4.05;;
22439;SDS011;11387;51.612;7.210;2023-07-16T11:04:02;6.43;;;3.38;;
22439;SDS011;11387;51.612;7.210;2023-07-16T11:06:36;8.55;;;3.30;;
22439;SDS011;11387;51.612;7.210;2023-07-16T11:09:05;6.10;;;3.40;;
22439;SDS011;11387;51.612;7.210;2023-07-16T11:11:34;8.00;;;3.70;;
22439;SDS011;11387;51.612;7.210;2023-07-16T11:14:04;9.05;;;3.47;;
22439;SDS011;11387;51.612;7.210;2023-07-16T11:16:33;8.10;;;3.80;;
22439;SDS011;11387;51.612;7.210;2023-07-16T11:19:03;8.00;;;3.53;;
22439;SDS011;11387;51.612;7.210;2023-07-16T11:21:33;11.10;;;3.67;;
22439;SDS011;11387;51.612;7.210;2023-07-16T11:24:10;10.25;;;3.55;;
22439;SDS011;11387;51.612;7.210;2023-07-16T11:26:49;8.93;;;3.72;;
22439;SDS011;11387;51.612;7.210;2023-07-16T11:29:19;10.23;;;3.20;;
22439;SDS011;11387;51.612;7.210;2023-07-16T11:31:49;8.07;;;3.47;;
22439;SDS011;11387;51.612;7.210;2023-07-16T11:34:19;11.68;;;3.75;;
22439;SDS011;11387;51.612;7.210;2023-07-16T11:36:48;10.82;;;3.53;;
22439;SDS011;11387;51.612;7.210;2023-07-16T11:39:19;10.20;;;3.65;;
22439;SDS011;11387;51.612;7.210;2023-07-16T11:41:53;8.43;;;3.40;;
22439;SDS011;11387;51.612;7.210;2023-07-16T11:44:26;8.38;;;3.97;;
22439;SDS011;11387;51.612;7.210;2023-07-16T11:47:00;8.68;;;3.45;;
22439;SDS011;11387;51.612;7.210;2023-07-16T11:49:29;9.10;;;3.63;;
22439;SDS011;11387;51.612;7.210;2023-07-16T11:51:58;13.88;;;3.45;;
22439;SDS011;11387;51.612;7.210;2023-07-16T11:54:28;12.13;;;4.22;;
22439;SDS011;11387;51.612;7.210;2023-07-16T11:56:57;8.02;;;3.83;;
22439;SDS011;11387;51.612;7.210;2023-07-16T11:59:25;7.18;;;3.38;;
22439;SDS011;11387;51.612;7.210;2023-07-16T12:01:54;11.68;;;4.18;;
22439;SDS011;11387;51.612;7.210;2023-07-16T12:04:22;10.77;;;4.18;;
22439;SDS011;11387;51.612;7.210;2023-07-16T12:06:51;9.40;;;3.85;;
22439;SDS011;11387;51.612;7.210;2023-07-16T12:09:19;7.35;;;3.22;;
22439;SDS011;11387;51.612;7.210;2023-07-16T12:11:49;9.40;;;3.80;;
22439;SDS011;11387;51.612;7.210;2023-07-16T12:14:18;11.60;;;5.10;;
22439;SDS011;11387;51.612;7.210;2023-07-16T12:16:47;10.48;;;3.97;;
22439;SDS011;11387;51.612;7.210;2023-07-16T12:19:15;7.90;;;3.70;;
22439;SDS011;11387;51.612;7.210;2023-07-16T12:21:44;9.38;;;3.97;;
22439;SDS011;11387;51.612;7.210;2023-07-16T12:24:13;11.40;;;4.95;;
22439;SDS011;11387;51.612;7.210;2023-07-16T12:26:41;10.63;;;7.18;;
22439;SDS011;11387;51.612;7.210;2023-07-16T12:29:11;18.98;;;9.85;;
22439;SDS011;11387;51.612;7.210;2023-07-16T12:31:40;11.82;;;4.18;;
22439;SDS011;11387;51.612;7.210;2023-07-16T12:34:08;7.03;;;3.70;;
22439;SDS011;11387;51.612;7.210;2023-07-16T12:36:37;7.15;;;3.80;;
22439;SDS011;11387;51.612;7.210;2023-07-16T12:39:05;10.52;;;4.43;;
22439;SDS011;11387;51.612;7.210;2023-07-16T12:41:34;12.80;;;5.18;;
22439;SDS011;11387;51.612;7.210;2023-07-16T12:44:02;9.25;;;3.58;;
22439;SDS011;11387;51.612;7.210;2023-07-16T12:46:35;9.07;;;4.20;;
22439;SDS011;11387;51.612;7.210;2023-07-16T12:49:04;8.57;;;4.50;;
22439;SDS011;11387;51.612;7.210;2023-07-16T12:51:32;8.68;;;4.57;;
22439;SDS011;11387;51.612;7.210;2023-07-16T12:54:04;17.60;;;9.88;;
22439;SDS011;11387;51.612;7.210;2023-07-16T12:56:33;12.00;;;5.03;;
22439;SDS011;11387;51.612;7.210;2023-07-16T12:59:01;11.05;;;6.05;;
22439;SDS011;11387;51.612;7.210;2023-07-16T13:01:30;13.88;;;8.25;;
22439;SDS011;11387;51.612;7.210;2023-07-16T13:04:00;8.50;;;3.40;;
22439;SDS011;11387;51.612;7.210;2023-07-16T13:06:29;12.02;;;4.35;;
22439;SDS011;11387;51.612;7.210;2023-07-16T13:08:58;9.10;;;4.10;;
22439;SDS011;11387;51.612;7.210;2023-07-16T13:11:26;7.32;;;3.13;;
22439;SDS011;11387;51.612;7.210;2023-07-16T13:13:55;9.90;;;3.83;;
22439;SDS011;11387;51.612;7.210;2023-07-16T13:16:23;8.13;;;3.38;;
22439;SDS011;11387;51.612;7.210;2023-07-16T13:18:52;7.75;;;3.75;;
22439;SDS011;11387;51.612;7.210;2023-07-16T13:21:22;9.57;;;3.42;;
22439;SDS011;11387;51.612;7.210;2023-07-16T13:23:51;7.30;;;3.20;;
22439;SDS011;11387;51.612;7.210;2023-07-16T13:26:19;7.68;;;4.18;;
22439;SDS011;11387;51.612;7.210;2023-07-16T13:28:48;7.88;;;3.80;;
22439;SDS011;11387;51.612;7.210;2023-07-16T13:31:17;6.22;;;3.97;;
22439;SDS011;11387;51.612;7.210;2023-07-16T13:33:45;6.20;;;3.72;;
22439;SDS011;11387;51.612;7.210;2023-07-16T13:36:14;8.32;;;3.30;;
22439;SDS011;11387;51.612;7.210;2023-07-16T13:38:44;10.27;;;3.67;;
22439;SDS011;11387;51.612;7.210;2023-07-16T13:41:13;10.38;;;4.30;;
22439;SDS011;11387;51.612;7.210;2023-07-16T13:46:32;8.60;;;3.58;;
22439;SDS011;11387;51.612;7.210;2023-07-16T13:49:00;6.93;;;3.90;;
22439;SDS011;11387;51.612;7.210;2023-07-16T13:51:29;8.35;;;4.05;;
22439;SDS011;11387;51.612;7.210;2023-07-16T13:53:59;8.75;;;3.80;;
22439;SDS011;11387;51.612;7.210;2023-07-16T13:56:28;8.77;;;3.90;;
22439;SDS011;11387;51.612;7.210;2023-07-16T13:58:56;9.68;;;3.40;;
22439;SDS011;11387;51.612;7.210;2023-07-16T14:01:25;5.70;;;3.55;;
22439;SDS011;11387;51.612;7.210;2023-07-16T14:03:53;8.85;;;4.07;;
22439;SDS011;11387;51.612;7.210;2023-07-16T14:06:22;9.35;;;3.60;;
22439;SDS011;11387;51.612;7.210;2023-07-16T14:08:51;6.93;;;3.80;;
22439;SDS011;11387;51.612;7.210;2023-07-16T14:11:22;10.18;;;3.47;;
22439;SDS011;11387;51.612;7.210;2023-07-16T14:13:59;7.53;;;3.90;;
22439;SDS011;11387;51.612;7.210;2023-07-16T14:16:28;7.93;;;3.78;;
22439;SDS011;11387;51.612;7.210;2023-07-16T14:18:56;7.80;;;3.85;;
22439;SDS011;11387;51.612;7.210;2023-07-16T14:21:25;5.78;;;3.30;;
22439;SDS011;11387;51.612;7.210;2023-07-16T14:23:53;9.85;;;3.78;;
22439;SDS011;11387;51.612;7.210;2023-07-16T14:26:23;7.22;;;3.53;;
22439;SDS011;11387;51.612;7.210;2023-07-16T14:28:52;7.43;;;3.28;;
22439;SDS011;11387;51.612;7.210;2023-07-16T14:31:20;6.35;;;3.33;;
22439;SDS011;11387;51.612;7.210;2023-07-16T14:33:49;8.50;;;3.97;;
22439;SDS011;11387;51.612;7.210;2023-07-16T14:36:17;10.27;;;4.03;;
22439;SDS011;11387;51.612;7.210;2023-07-16T14:38:46;10.45;;;3.78;;
22439;SDS011;11387;51.612;7.210;2023-07-16T14:41:15;8.73;;;3.80;;
22439;SDS011;11387;51.612;7.210;2023-07-16T14:43:45;9.18;;;3.95;;
22439;SDS011;11387;51.612;7.210;2023-07-16T14:46:16;9.95;;;3.70;;
22439;SDS011;11387;51.612;7.210;2023-07-16T14:48:46;9.40;;;4.22;;
22439;SDS011;11387;51.612;7.210;2023-07-16T14:51:14;7.95;;;3.47;;
22439;SDS011;11387;51.612;7.210;2023-07-16T14:53:43;7.60;;;4.20;;
22439;SDS011;11387;51.612;7.210;2023-07-16T14:56:12;6.38;;;3.40;;
22439;SDS011;11387;51.612;7.210;2023-07-16T14:58:41;7.25;;;3.22;;
22439;SDS011;11387;51.612;7.210;2023-07-16T15:01:11;7.22;;;3.45;;
22439;SDS011;11387;51.612;7.210;2023-07-16T15:03:39;4.95;;;2.53;;